Time;durP1;ratioP1;P1;durP2;ratioP2;P2;SDS_P1;SDS_P2;PMS_P1;PMS_P2;Temp;Humidity;BMP_temperature;BMP_pressure;BME280_temperature;BME280_humidity;BME280_pressure;Samples;Min_cycle;Max_cycle;Signal;HPM_P1;HPM_P2
2022/09/18 00:02:06;;;;;;;22.25;11.57;;;;;;;18.80;92.81;98024.06;5046796;28;20029;-69
2022/09/18 00:04:31;;;;;;;23.95;12.68;;;;;;;18.88;91.70;98019.09;5054220;28;20017;-69
2022/09/18 00:06:57;;;;;;;25.83;14.43;;;;;;;18.94;90.53;98026.72;5052686;28;20023;-69
2022/09/18 00:09:22;;;;;;;25.75;13.77;;;;;;;18.84;89.98;98024.84;5054038;28;20023;-69
2022/09/18 00:11:49;;;;;;;28.25;13.25;;;;;;;18.88;90.68;98024.75;5054004;28;20028;-69
2022/09/18 00:14:18;;;;;;;29.17;15.50;;;;;;;18.83;90.66;98023.25;5054061;28;20082;-69
2022/09/18 00:16:44;;;;;;;28.70;14.30;;;;;;;18.89;90.86;98029.22;5053927;28;20116;-69
2022/09/18 00:19:11;;;;;;;25.42;14.13;;;;;;;18.87;90.97;98040.97;5052838;28;20025;-69
2022/09/18 00:21:40;;;;;;;30.95;16.52;;;;;;;18.86;91.35;98030.06;5053775;28;20055;-69
2022/09/18 00:24:06;;;;;;;28.90;16.30;;;;;;;18.49;93.23;98026.94;5053917;28;20104;-69
2022/09/18 00:26:32;;;;;;;27.63;15.60;;;;;;;18.59;93.61;98034.47;5053725;28;20048;-69
2022/09/18 00:28:58;;;;;;;31.77;15.73;;;;;;;18.56;93.75;98038.13;5053656;28;20517;-69
2022/09/18 00:31:30;;;;;;;20.70;12.73;;;;;;;18.60;94.51;98027.59;5053538;28;20113;-69
2022/09/18 00:33:57;;;;;;;23.08;13.00;;;;;;;18.76;92.73;98043.16;5053623;28;20021;-69
2022/09/18 00:36:23;;;;;;;24.00;13.23;;;;;;;18.79;91.72;98030.97;5053545;28;20454;-69
2022/09/18 00:38:48;;;;;;;27.23;14.40;;;;;;;18.59;92.67;98019.50;5052256;28;20048;-69
2022/09/18 00:41:16;;;;;;;29.90;16.48;;;;;;;17.96;98.33;98019.41;5052497;28;20021;-69
2022/09/18 00:43:42;;;;;;;27.73;14.60;;;;;;;18.27;96.62;98015.88;5053130;28;20152;-69
2022/09/18 00:46:14;;;;;;;27.20;13.98;;;;;;;18.16;97.20;98037.81;5053303;28;20025;-69
2022/09/18 00:48:48;;;;;;;17.42;11.75;;;;;;;17.72;100.00;98049.53;5053253;28;20021;-69
2022/09/18 00:51:16;;;;;;;17.17;10.85;;;;;;;17.30;100.00;98034.56;5053120;28;20488;-69
2022/09/18 00:53:49;;;;;;;21.73;11.15;;;;;;;17.11;100.00;98051.66;5053217;28;20545;-69
2022/09/18 00:56:15;;;;;;;17.55;10.80;;;;;;;17.10;100.00;98049.25;5053170;28;20032;-69
2022/09/18 00:58:41;;;;;;;15.40;9.73;;;;;;;17.13;100.00;98059.69;5053060;28;20104;-69
2022/09/18 01:01:07;;;;;;;18.48;8.27;;;;;;;17.06;100.00;98056.94;5053098;28;20040;-69
2022/09/18 01:03:34;;;;;;;13.75;8.23;;;;;;;17.24;100.00;98049.13;5052899;28;20052;-70
2022/09/18 01:06:14;;;;;;;14.07;9.00;;;;;;;17.18;100.00;98045.16;5052923;28;20033;-69
2022/09/18 01:08:44;;;;;;;15.50;8.77;;;;;;;17.32;100.00;98051.91;5052851;28;20078;-69
2022/09/18 01:11:40;;;;;;;11.53;7.97;;;;;;;17.33;100.00;98050.69;5052767;28;20025;-69
2022/09/18 01:14:18;;;;;;;13.38;9.98;;;;;;;17.15;100.00;98034.69;5052752;28;20416;-69
2022/09/18 01:16:54;;;;;;;18.55;10.32;;;;;;;17.19;100.00;98032.63;5052718;28;20556;-68
2022/09/18 01:20:05;;;;;;;17.40;10.18;;;;;;;17.35;100.00;98048.25;5052740;28;20684;-69
2022/09/18 01:23:03;;;;;;;14.43;11.07;;;;;;;17.14;100.00;98035.09;5052479;28;20111;-69
2022/09/18 01:25:49;;;;;;;16.83;12.10;;;;;;;17.14;100.00;98047.22;5052529;28;20028;-69
2022/09/18 01:28:37;;;;;;;19.95;11.55;;;;;;;17.23;100.00;98052.38;5052473;28;20048;-69
2022/09/18 01:31:16;;;;;;;16.60;11.15;;;;;;;17.38;100.00;98047.44;5052296;28;20021;-69
2022/09/18 01:33:51;;;;;;;24.33;13.75;;;;;;;17.20;100.00;98058.88;5052464;28;20123;-69
2022/09/18 01:36:20;;;;;;;18.67;13.15;;;;;;;17.12;100.00;98044.78;5052372;28;20036;-69
2022/09/18 01:39:19;;;;;;;23.60;13.38;;;;;;;17.41;100.00;98046.59;5052413;28;20048;-69
2022/09/18 01:41:50;;;;;;;19.20;12.65;;;;;;;17.49;100.00;98041.69;5052185;28;20028;-69
2022/09/18 01:44:20;;;;;;;16.83;13.20;;;;;;;17.63;100.00;98052.84;5052082;28;20045;-69
2022/09/18 01:46:48;;;;;;;21.00;13.45;;;;;;;17.78;100.00;98042.22;5050909;28;20025;-69
2022/09/18 01:49:24;;;;;;;20.48;14.07;;;;;;;17.80;99.48;98036.16;5052137;28;20029;-70
2022/09/18 01:52:26;;;;;;;21.40;12.75;;;;;;;17.78;97.64;98035.75;5052197;28;20021;-69
2022/09/18 01:54:56;;;;;;;26.67;14.13;;;;;;;17.37;99.92;98040.16;5049614;28;20045;-70
2022/09/18 01:57:31;;;;;;;19.35;14.70;;;;;;;17.61;99.45;98051.66;5052030;28;20024;-69
2022/09/18 02:00:00;;;;;;;19.33;13.32;;;;;;;17.74;98.23;98060.44;5051944;28;20025;-69
2022/09/18 02:02:42;;;;;;;20.98;14.13;;;;;;;17.87;97.20;98053.03;5051877;28;20510;-69
2022/09/18 02:05:13;;;;;;;22.55;15.38;;;;;;;17.92;96.23;98060.28;5051822;28;20049;-69
2022/09/18 02:07:49;;;;;;;21.35;13.40;;;;;;;17.90;95.67;98045.75;5051827;28;20517;-69
2022/09/18 02:10:15;;;;;;;21.02;13.82;;;;;;;17.57;96.49;98026.28;5051586;28;20116;-68
2022/09/18 02:12:42;;;;;;;24.85;15.05;;;;;;;17.29;98.53;98035.81;5051544;28;20067;-69
2022/09/18 02:15:11;;;;;;;25.08;16.23;;;;;;;17.41;98.05;98029.66;5051726;28;20495;-69
2022/09/18 02:18:03;;;;;;;20.52;15.15;;;;;;;17.68;96.66;98048.78;5050341;28;20024;-69
2022/09/18 02:20:32;;;;;;;28.63;16.23;;;;;;;16.97;99.56;98058.16;5051534;28;20021;-69
2022/09/18 02:23:03;;;;;;;24.90;16.35;;;;;;;16.87;100.00;98058.25;5051665;28;20452;-70
2022/09/18 02:25:37;;;;;;;33.30;16.13;;;;;;;16.44;100.00;98074.16;5050265;28;20033;-69
2022/09/18 02:28:06;;;;;;;23.35;15.13;;;;;;;15.96;100.00;98086.78;5051367;28;20029;-69
2022/09/18 02:30:32;;;;;;;57.38;15.05;;;;;;;15.68;100.00;98094.00;5051370;28;20087;-68
2022/09/18 02:32:58;;;;;;;33.00;16.60;;;;;;;15.74;100.00;98103.69;5050045;28;20024;-68
2022/09/18 02:35:31;;;;;;;27.17;16.02;;;;;;;15.72;100.00;98106.13;5051367;28;20029;-69
2022/09/18 02:38:09;;;;;;;29.52;16.75;;;;;;;15.75;100.00;98091.22;5049941;28;20029;-69
2022/09/18 02:40:38;;;;;;;47.90;20.55;;;;;;;15.81;100.00;98105.69;5050046;28;20082;-69
2022/09/18 02:43:22;;;;;;;28.83;17.48;;;;;;;15.79;100.00;98117.38;5050590;28;20079;-68
2022/09/18 02:46:46;;;;;;;25.60;16.02;;;;;;;15.85;100.00;98148.78;5051150;28;20021;-69
2022/09/18 02:49:41;;;;;;;30.02;16.27;;;;;;;15.92;100.00;98150.81;5049911;28;20048;-68
2022/09/18 02:52:27;;;;;;;25.85;15.45;;;;;;;15.86;100.00;98139.94;5051238;28;20033;-69
2022/09/18 02:55:02;;;;;;;21.23;13.73;;;;;;;15.93;100.00;98150.44;5048879;28;20017;-69
2022/09/18 02:57:38;;;;;;;23.77;13.60;;;;;;;15.83;100.00;98140.75;5042421;28;20022;-69
2022/09/18 03:00:06;;;;;;;16.10;12.48;;;;;;;15.82;100.00;98155.22;5043927;28;20024;-69
2022/09/18 03:02:32;;;;;;;20.73;11.93;;;;;;;15.85;100.00;98162.88;5035743;28;20030;-69
2022/09/18 03:04:57;;;;;;;25.17;13.68;;;;;;;15.82;100.00;98172.97;5033403;28;20123;-68
2022/09/18 03:07:23;;;;;;;22.63;14.63;;;;;;;15.85;100.00;98186.25;5050920;28;20075;-69
2022/09/18 03:09:49;;;;;;;23.33;13.32;;;;;;;15.90;100.00;98193.53;5049901;28;20025;-68
2022/09/18 03:12:14;;;;;;;18.60;13.13;;;;;;;15.85;100.00;98180.59;5050919;28;20107;-69
2022/09/18 03:14:40;;;;;;;24.77;14.50;;;;;;;15.83;100.00;98185.84;5031324;28;20029;-69
2022/09/18 03:17:05;;;;;;;25.95;14.20;;;;;;;15.87;100.00;98205.59;5031036;28;20032;-69
2022/09/18 03:19:31;;;;;;;23.38;11.95;;;;;;;15.91;100.00;98209.25;5031057;28;20026;-69
2022/09/18 03:21:57;;;;;;;19.55;8.38;;;;;;;15.86;100.00;98215.22;5030893;28;20125;-69
2022/09/18 03:24:24;;;;;;;8.32;5.40;;;;;;;15.80;100.00;98222.50;5030938;28;20022;-69
2022/09/18 03:26:51;;;;;;;5.55;3.42;;;;;;;15.78;94.97;98239.00;5030919;28;20031;-69
2022/09/18 03:29:16;;;;;;;4.07;2.90;;;;;;;15.55;90.63;98255.03;5030870;28;20638;-69
2022/09/18 03:31:42;;;;;;;7.10;2.72;;;;;;;15.38;90.39;98265.06;5030777;28;20113;-68
2022/09/18 03:34:08;;;;;;;5.35;2.53;;;;;;;15.13;87.64;98270.59;5030896;28;20028;-69
2022/09/18 03:36:33;;;;;;;3.78;2.20;;;;;;;15.00;87.40;98279.41;5030832;28;20167;-69
2022/09/18 03:38:59;;;;;;;9.07;2.75;;;;;;;15.02;85.72;98298.69;5030810;28;20087;-69
2022/09/18 03:41:24;;;;;;;2.75;2.40;;;;;;;14.80;88.71;98297.75;5030580;28;20024;-69
2022/09/18 03:43:50;;;;;;;3.85;2.10;;;;;;;14.74;86.92;98309.41;5030628;28;20053;-69
2022/09/18 03:46:22;;;;;;;2.45;2.25;;;;;;;14.41;83.14;98318.75;5030724;28;20029;-69
2022/09/18 03:48:51;;;;;;;3.85;1.92;;;;;;;14.16;82.77;98325.78;5030661;28;20025;-69
2022/09/18 03:51:18;;;;;;;1.60;1.50;;;;;;;14.00;82.92;98339.28;5030696;28;20040;-69
2022/09/18 03:53:44;;;;;;;5.50;1.50;;;;;;;13.89;81.34;98342.78;5030732;28;20025;-68
2022/09/18 03:56:11;;;;;;;1.20;1.10;;;;;;;13.69;78.94;98339.34;5034072;28;20021;-68
2022/09/18 03:58:37;;;;;;;3.47;1.15;;;;;;;13.61;78.85;98358.13;5033080;28;20018;-68
2022/09/18 04:01:02;;;;;;;2.25;1.45;;;;;;;13.51;78.98;98372.03;5034285;28;20022;-68
2022/09/18 04:03:28;;;;;;;3.67;0.98;;;;;;;13.46;78.28;98392.84;5051191;28;20028;-69
2022/09/18 04:05:53;;;;;;;1.23;1.02;;;;;;;13.29;77.38;98386.59;5054029;28;20021;-69
2022/09/18 04:08:19;;;;;;;1.83;1.33;;;;;;;13.38;76.44;98400.34;5052851;28;20028;-68
2022/09/18 04:10:47;;;;;;;2.72;1.17;;;;;;;13.27;76.10;98405.81;5052654;28;20518;-68
2022/09/18 04:13:12;;;;;;;1.08;1.00;;;;;;;13.23;75.50;98387.28;5054049;28;20507;-68
2022/09/18 04:15:38;;;;;;;2.22;1.15;;;;;;;13.16;74.91;98414.06;5053969;28;20021;-68
2022/09/18 04:18:03;;;;;;;4.43;1.38;;;;;;;13.15;74.17;98415.25;5053826;28;20029;-68
2022/09/18 04:20:29;;;;;;;3.97;1.00;;;;;;;13.18;73.18;98408.09;5052657;28;20024;-68
2022/09/18 04:22:55;;;;;;;0.77;0.77;;;;;;;13.17;72.70;98434.53;5053849;28;20024;-68
2022/09/18 04:25:21;;;;;;;1.67;1.20;;;;;;;13.25;71.35;98438.25;5053604;28;20075;-68
2022/09/18 04:27:46;;;;;;;2.78;1.35;;;;;;;13.23;71.66;98449.06;5053846;28;20021;-68
2022/09/18 04:30:13;;;;;;;1.60;1.13;;;;;;;13.17;72.82;98457.00;5053522;28;20573;-68
2022/09/18 04:32:38;;;;;;;1.45;0.90;;;;;;;13.22;70.79;98475.53;5047086;28;20086;-68
2022/09/18 04:35:05;;;;;;;6.97;1.40;;;;;;;13.24;70.04;98462.72;5053631;28;20020;-68
2022/09/18 04:37:30;;;;;;;0.70;0.70;;;;;;;13.29;68.43;98482.06;5053564;28;20017;-68
2022/09/18 04:39:56;;;;;;;3.95;1.00;;;;;;;13.40;69.44;98487.81;5053559;28;20095;-68
2022/09/18 04:42:21;;;;;;;2.78;1.02;;;;;;;13.36;69.36;98491.75;5053267;28;20020;-68
2022/09/18 04:44:47;;;;;;;1.23;0.85;;;;;;;13.30;68.54;98491.28;5053354;28;20083;-68
2022/09/18 04:47:12;;;;;;;2.35;0.73;;;;;;;13.31;66.60;98510.56;5053335;28;20017;-68
2022/09/18 04:49:38;;;;;;;0.70;0.63;;;;;;;13.33;66.53;98521.41;5051961;28;20078;-68
2022/09/18 04:52:03;;;;;;;7.68;1.05;;;;;;;13.33;66.22;98541.88;5042087;28;20025;-68
2022/09/18 04:54:29;;;;;;;1.10;0.73;;;;;;;13.38;65.96;98529.53;5051184;28;20028;-68
2022/09/18 04:56:54;;;;;;;0.90;0.75;;;;;;;13.51;68.60;98554.63;5030359;28;20035;-70
2022/09/18 04:59:19;;;;;;;1.05;0.93;;;;;;;13.51;69.03;98566.66;5030974;28;20083;-68
2022/09/18 05:01:45;;;;;;;1.52;1.33;;;;;;;13.62;68.64;98567.63;5029592;28;20025;-69
2022/09/18 05:04:10;;;;;;;7.20;0.90;;;;;;;13.80;67.80;98585.97;5030481;28;20514;-68
2022/09/18 05:06:36;;;;;;;2.22;1.10;;;;;;;13.71;65.31;98580.63;5029896;28;20411;-71
2022/09/18 05:09:01;;;;;;;5.75;1.20;;;;;;;13.74;66.70;98577.88;5030681;28;20210;-70
2022/09/18 05:11:27;;;;;;;3.05;1.15;;;;;;;13.81;66.84;98591.22;5043073;28;20029;-70
2022/09/18 05:13:55;;;;;;;0.93;0.88;;;;;;;13.83;66.31;98582.41;5050257;28;20029;-70
2022/09/18 05:16:22;;;;;;;10.00;1.30;;;;;;;14.00;66.62;98597.94;5050095;28;20025;-68
2022/09/18 05:18:50;;;;;;;5.47;1.25;;;;;;;14.01;67.07;98599.53;5049884;28;20028;-68
2022/09/18 05:21:15;;;;;;;1.42;1.33;;;;;;;14.11;67.70;98624.16;5050025;28;20095;-68
2022/09/18 05:23:41;;;;;;;3.05;1.58;;;;;;;14.23;68.36;98616.69;5050048;28;20122;-69
2022/09/18 05:26:07;;;;;;;2.75;1.23;;;;;;;14.14;65.64;98615.00;5049946;28;20032;-67
2022/09/18 05:28:33;;;;;;;3.13;1.60;;;;;;;14.00;64.67;98615.59;5046591;28;20106;-67
2022/09/18 05:30:59;;;;;;;1.90;1.30;;;;;;;14.02;64.23;98630.06;5048581;28;20021;-67
2022/09/18 05:33:25;;;;;;;4.63;1.52;;;;;;;14.08;65.55;98632.56;5038823;28;20025;-68
2022/09/18 05:35:55;;;;;;;5.70;1.88;;;;;;;14.25;63.91;98639.66;5037328;28;20103;-67
2022/09/18 05:38:21;;;;;;;9.52;1.30;;;;;;;14.26;64.84;98644.09;5029169;28;20029;-68
2022/09/18 05:40:47;;;;;;;6.80;1.33;;;;;;;14.29;64.91;98637.69;5048799;28;20028;-68
2022/09/18 05:43:14;;;;;;;2.33;1.10;;;;;;;14.26;63.98;98642.06;5032596;28;20493;-67
2022/09/18 05:45:39;;;;;;;2.47;1.60;;;;;;;14.11;62.81;98649.47;5031185;28;20030;-67
2022/09/18 05:48:05;;;;;;;5.28;1.08;;;;;;;14.05;63.10;98670.69;5030963;28;20025;-67
2022/09/18 05:50:32;;;;;;;1.63;1.00;;;;;;;13.99;63.09;98669.38;5032497;28;20068;-67
2022/09/18 05:53:09;;;;;;;2.25;1.00;;;;;;;14.03;64.57;98681.50;5032224;28;20407;-67
2022/09/18 05:55:35;;;;;;;3.90;1.05;;;;;;;13.94;64.47;98683.75;5037273;28;20033;-67
2022/09/18 05:58:02;;;;;;;6.00;1.60;;;;;;;13.90;65.28;98675.28;5046241;28;20040;-67
2022/09/18 06:00:30;;;;;;;1.63;1.13;;;;;;;13.85;64.57;98681.22;5037884;28;20107;-67
2022/09/18 06:02:57;;;;;;;2.42;1.10;;;;;;;13.86;64.05;98688.47;5038130;28;20029;-69
2022/09/18 06:05:24;;;;;;;2.47;1.20;;;;;;;13.74;61.82;98683.84;5051919;28;20028;-69
2022/09/18 06:07:50;;;;;;;1.98;1.15;;;;;;;13.69;62.98;98678.53;5051917;28;20029;-68
2022/09/18 06:10:17;;;;;;;2.10;1.30;;;;;;;13.72;62.70;98686.22;5051708;28;20025;-68
2022/09/18 06:12:43;;;;;;;3.60;1.50;;;;;;;13.72;61.95;98689.03;5050195;28;20415;-68
2022/09/18 06:15:09;;;;;;;3.15;1.40;;;;;;;13.65;61.72;98700.16;5044179;28;20029;-69
2022/09/18 06:17:35;;;;;;;3.30;1.80;;;;;;;13.62;62.31;98702.50;5042765;28;20036;-68
2022/09/18 06:20:00;;;;;;;2.60;1.83;;;;;;;13.54;62.64;98711.19;5033405;28;20022;-67
2022/09/18 06:22:26;;;;;;;2.13;1.58;;;;;;;13.54;61.85;98719.63;5034868;28;20523;-68
2022/09/18 06:24:51;;;;;;;2.25;1.83;;;;;;;13.47;62.50;98731.53;5045145;28;20433;-68
2022/09/18 06:27:17;;;;;;;2.17;1.85;;;;;;;13.43;62.06;98739.06;5031461;28;20084;-67
2022/09/18 06:29:42;;;;;;;7.05;2.17;;;;;;;13.45;61.82;98750.78;5032969;28;20041;-68
2022/09/18 06:32:08;;;;;;;1.98;1.50;;;;;;;13.38;63.18;98757.03;5051580;28;20025;-67
2022/09/18 06:34:34;;;;;;;1.40;1.30;;;;;;;13.44;63.77;98769.59;5044193;28;20029;-67
2022/09/18 06:37:00;;;;;;;8.40;3.08;;;;;;;13.48;63.84;98767.69;5031473;28;20036;-69
2022/09/18 06:39:25;;;;;;;3.80;2.85;;;;;;;13.36;63.11;98773.44;5032267;28;20029;-67
2022/09/18 06:41:51;;;;;;;4.88;3.20;;;;;;;13.18;62.90;98775.91;5041506;28;20447;-67
2022/09/18 06:44:16;;;;;;;4.63;3.00;;;;;;;13.11;62.53;98779.38;5031110;28;20096;-67
2022/09/18 06:46:42;;;;;;;5.18;3.10;;;;;;;13.17;63.15;98783.50;5043566;28;20404;-67
2022/09/18 06:49:07;;;;;;;3.13;2.53;;;;;;;13.13;62.08;98793.03;5031269;28;20029;-67
2022/09/18 06:51:32;;;;;;;4.00;3.13;;;;;;;13.17;62.88;98810.78;5047936;28;20029;-67
2022/09/18 06:53:58;;;;;;;4.80;3.03;;;;;;;13.23;62.63;98814.09;5044854;28;20032;-67
2022/09/18 06:56:23;;;;;;;5.18;2.78;;;;;;;13.23;63.04;98823.31;5046611;28;20044;-67
2022/09/18 06:58:52;;;;;;;3.78;2.40;;;;;;;13.43;63.93;98834.56;5051176;28;20029;-67
2022/09/18 07:01:17;;;;;;;4.72;2.65;;;;;;;13.44;63.36;98839.03;5051024;28;20025;-67
2022/09/18 07:03:43;;;;;;;2.20;2.00;;;;;;;13.47;62.92;98832.66;5051176;28;20021;-67
2022/09/18 07:06:09;;;;;;;2.38;1.85;;;;;;;13.74;62.00;98844.84;5051142;28;20021;-67
2022/09/18 07:08:34;;;;;;;3.15;2.13;;;;;;;13.81;61.44;98838.56;5051039;28;20063;-67
2022/09/18 07:11:01;;;;;;;3.42;2.05;;;;;;;13.94;61.14;98841.19;5050995;28;20116;-67
2022/09/18 07:13:32;;;;;;;6.05;2.13;;;;;;;14.03;61.82;98830.53;5051149;28;20021;-67
2022/09/18 07:15:58;;;;;;;14.52;2.38;;;;;;;14.17;62.65;98849.63;5050978;28;20101;-67
2022/09/18 07:18:24;;;;;;;2.03;1.83;;;;;;;13.91;60.54;98848.38;5049622;28;20032;-67
2022/09/18 07:20:50;;;;;;;5.45;1.73;;;;;;;13.98;59.42;98840.06;5051034;28;20021;-67
2022/09/18 07:23:16;;;;;;;5.13;2.22;;;;;;;13.94;60.83;98842.03;5049757;28;20021;-67
2022/09/18 07:25:41;;;;;;;5.03;1.98;;;;;;;13.74;59.55;98838.41;5050875;28;20177;-67
2022/09/18 07:28:09;;;;;;;2.38;1.95;;;;;;;13.59;60.84;98848.56;5051229;28;20056;-67
2022/09/18 07:30:36;;;;;;;2.60;1.40;;;;;;;13.55;60.06;98850.47;5054822;28;20079;-67
2022/09/18 07:33:03;;;;;;;5.95;1.98;;;;;;;13.66;60.55;98859.13;5053548;28;20024;-67
2022/09/18 07:35:29;;;;;;;4.28;1.90;;;;;;;13.64;62.06;98862.31;5054807;28;20492;-67
2022/09/18 07:38:01;;;;;;;11.35;2.67;;;;;;;13.72;60.58;98863.25;5054790;28;20031;-67
2022/09/18 07:40:27;;;;;;;2.70;1.70;;;;;;;13.88;62.57;98872.44;5054777;28;20021;-67
2022/09/18 07:43:04;;;;;;;2.75;2.20;;;;;;;13.99;61.79;98866.19;5054683;28;20032;-67
2022/09/18 07:45:30;;;;;;;3.28;1.63;;;;;;;14.12;61.38;98881.72;5052919;28;20078;-67
2022/09/18 07:47:55;;;;;;;4.30;1.80;;;;;;;14.13;60.80;98879.69;5051932;28;20037;-67
2022/09/18 07:50:21;;;;;;;3.03;2.10;;;;;;;14.04;60.50;98886.38;5047358;28;20033;-67
2022/09/18 07:52:52;;;;;;;4.07;2.30;;;;;;;14.07;60.07;98892.44;5054476;28;20032;-67
2022/09/18 07:55:19;;;;;;;3.42;2.70;;;;;;;14.04;59.94;98885.56;5054455;28;20087;-67
2022/09/18 07:57:46;;;;;;;2.28;1.85;;;;;;;14.01;60.48;98892.75;5054350;28;20032;-67
2022/09/18 08:00:12;;;;;;;3.50;1.88;;;;;;;13.95;58.18;98896.22;5054233;28;20139;-67
2022/09/18 08:02:38;;;;;;;4.10;1.55;;;;;;;13.94;59.97;98901.06;5054399;28;20483;-67
2022/09/18 08:05:04;;;;;;;2.08;1.55;;;;;;;13.98;58.54;98887.03;5054286;28;20104;-67
2022/09/18 08:07:29;;;;;;;4.32;1.60;;;;;;;13.96;58.75;98883.78;5054168;28;20021;-67
2022/09/18 08:09:55;;;;;;;2.78;1.52;;;;;;;13.98;58.06;98892.66;5054092;28;20055;-67
2022/09/18 08:12:20;;;;;;;3.88;1.55;;;;;;;14.00;55.67;98910.00;5054135;28;20056;-67
2022/09/18 08:14:46;;;;;;;1.30;1.17;;;;;;;14.10;56.33;98898.13;5054163;28;20056;-67
2022/09/18 08:17:11;;;;;;;3.83;1.55;;;;;;;14.12;55.42;98906.19;5054045;28;20031;-67
2022/09/18 08:19:37;;;;;;;3.67;1.20;;;;;;;14.12;56.21;98895.78;5053939;28;20028;-67
2022/09/18 08:22:03;;;;;;;2.97;1.52;;;;;;;14.27;55.82;98912.91;5053906;28;20079;-67
2022/09/18 08:24:29;;;;;;;3.15;1.88;;;;;;;14.25;56.92;98906.84;5053869;28;20100;-67
2022/09/18 08:27:01;;;;;;;1.60;1.42;;;;;;;14.39;55.47;98907.09;5053621;28;20096;-67
2022/09/18 08:29:27;;;;;;;1.85;1.52;;;;;;;14.61;55.40;98913.09;5052760;28;20033;-67
2022/09/18 08:31:52;;;;;;;2.08;1.17;;;;;;;14.68;54.78;98890.69;5040275;28;20480;-67
2022/09/18 08:34:18;;;;;;;2.38;1.30;;;;;;;14.73;53.73;98896.03;5033780;28;20036;-67
2022/09/18 08:36:43;;;;;;;6.63;1.40;;;;;;;14.54;54.15;98880.03;5033781;28;20029;-67
2022/09/18 08:39:09;;;;;;;3.72;1.30;;;;;;;14.81;53.92;98887.69;5032363;28;20497;-67
2022/09/18 08:41:55;;;;;;;2.20;1.30;;;;;;;14.83;53.77;98885.31;5045153;28;20028;-67
2022/09/18 08:44:27;;;;;;;1.13;1.02;;;;;;;14.78;53.56;98888.47;5053452;28;20056;-67
2022/09/18 08:47:21;;;;;;;1.42;1.25;;;;;;;14.92;53.85;98885.06;5050952;28;20107;-67
2022/09/18 08:49:57;;;;;;;4.25;1.52;;;;;;;14.95;53.15;98881.47;5032077;28;20122;-67
2022/09/18 08:52:27;;;;;;;2.67;1.48;;;;;;;14.98;53.13;98875.09;5047461;28;20017;-68
2022/09/18 08:55:08;;;;;;;1.40;1.13;;;;;;;15.01;52.18;98874.31;5053273;28;20405;-67
2022/09/18 08:57:38;;;;;;;2.88;1.50;;;;;;;15.10;51.74;98874.06;5053133;28;20029;-68
2022/09/18 09:00:11;;;;;;;1.70;1.20;;;;;;;15.13;51.68;98871.28;5053198;28;20017;-67
2022/09/18 09:02:39;;;;;;;1.88;1.45;;;;;;;15.26;52.07;98887.94;5051908;28;20025;-67
2022/09/18 09:05:12;;;;;;;6.50;2.00;;;;;;;15.26;51.88;98883.13;5053070;28;20108;-67
2022/09/18 09:08:04;;;;;;;3.38;2.33;;;;;;;15.42;52.86;98884.94;5053065;28;20033;-67
2022/09/18 09:11:00;;;;;;;1.90;1.70;;;;;;;15.45;50.69;98875.75;5052474;28;20066;-67
2022/09/18 09:13:58;;;;;;;5.05;1.75;;;;;;;15.48;51.17;98874.97;5032982;28;20021;-68
2022/09/18 09:16:43;;;;;;;1.23;1.13;;;;;;;15.52;49.12;98873.00;5049276;28;20515;-67
2022/09/18 09:19:17;;;;;;;1.60;1.35;;;;;;;15.56;48.95;98873.84;5052860;28;20025;-67
2022/09/18 09:21:58;;;;;;;5.30;1.50;;;;;;;15.58;47.74;98867.84;5052791;28;20032;-67
2022/09/18 09:24:29;;;;;;;3.90;1.50;;;;;;;15.80;46.94;98877.34;5053006;28;20029;-67
2022/09/18 09:26:56;;;;;;;3.22;2.35;;;;;;;16.35;47.33;98881.59;5033031;28;20484;-68
2022/09/18 09:29:29;;;;;;;1.63;1.27;;;;;;;16.51;46.47;98877.69;5036148;28;20029;-68
2022/09/18 09:31:58;;;;;;;2.45;1.30;;;;;;;16.65;45.94;98877.00;5031965;28;20431;-68
2022/09/18 09:35:16;;;;;;;1.05;0.95;;;;;;;16.73;45.43;98897.66;5037129;28;20093;-69
2022/09/18 09:37:45;;;;;;;1.02;1.00;;;;;;;16.92;47.35;98886.09;5036736;28;20499;-69
2022/09/18 09:40:41;;;;;;;2.38;1.50;;;;;;;16.92;45.85;98885.28;5043085;28;20074;-68
2022/09/18 09:43:23;;;;;;;6.88;1.35;;;;;;;16.91;45.23;98898.59;5039721;28;20114;-69
2022/09/18 09:45:57;;;;;;;1.33;1.23;;;;;;;17.08;46.18;98896.31;5038729;28;20431;-69
2022/09/18 09:48:32;;;;;;;3.65;1.10;;;;;;;16.94;46.05;98897.81;5046621;28;20032;-69
2022/09/18 09:51:16;;;;;;;1.58;1.10;;;;;;;16.68;46.60;98904.47;5049441;28;20021;-69
2022/09/18 09:53:42;;;;;;;3.15;1.38;;;;;;;16.52;46.42;98897.06;5031018;28;20403;-69
2022/09/18 09:57:12;;;;;;;6.15;1.30;;;;;;;16.37;46.33;98884.03;5031712;28;20029;-69
2022/09/18 09:59:52;;;;;;;0.90;0.90;;;;;;;16.62;47.42;98898.34;5004671;28;20048;-69
2022/09/18 10:02:57;;;;;;;1.42;1.33;;;;;;;16.70;46.19;98879.47;5037021;28;20048;-70
2022/09/18 10:05:31;;;;;;;2.42;1.40;;;;;;;16.74;45.89;98896.44;5039115;28;20029;-69
2022/09/18 10:08:14;;;;;;;2.30;1.25;;;;;;;16.69;45.73;98906.91;5048544;28;20513;-69
2022/09/18 10:10:52;;;;;;;1.25;0.95;;;;;;;16.94;46.48;98911.94;5045149;28;20037;-69
2022/09/18 10:13:21;;;;;;;4.65;1.58;;;;;;;16.95;46.13;98912.72;5043088;28;20024;-68
2022/09/18 10:15:51;;;;;;;10.77;4.50;;;;;;;17.15;46.79;98899.19;5048665;28;20523;-69
2022/09/18 10:18:28;;;;;;;10.88;3.33;;;;;;;17.08;43.89;98919.75;5034413;28;20026;-69
2022/09/18 10:20:57;;;;;;;4.80;2.75;;;;;;;17.21;45.32;98910.94;5040538;28;20033;-69
2022/09/18 10:23:54;;;;;;;6.72;4.18;;;;;;;17.41;43.83;98908.63;5036917;28;20108;-69
2022/09/18 10:26:30;;;;;;;6.65;4.78;;;;;;;17.11;43.99;98907.66;5045280;28;20040;-69
2022/09/18 10:28:55;;;;;;;6.68;3.85;;;;;;;16.78;44.12;98923.50;5036225;28;20072;-70
2022/09/18 10:31:21;;;;;;;4.13;2.08;;;;;;;16.72;44.55;98924.25;5043254;28;20491;-70
2022/09/18 10:33:49;;;;;;;6.43;2.60;;;;;;;17.08;45.53;98911.28;5048845;28;20040;-71
2022/09/18 10:36:34;;;;;;;1.60;1.50;;;;;;;17.06;42.96;98921.34;5048272;28;20033;-70
2022/09/18 10:39:16;;;;;;;2.83;2.15;;;;;;;16.96;43.86;98926.47;5036511;28;20021;-70
2022/09/18 10:41:43;;;;;;;2.53;2.30;;;;;;;17.25;43.11;98932.38;5033882;28;20040;-71
2022/09/18 10:44:35;;;;;;;4.15;1.85;;;;;;;17.98;43.45;98927.06;5028552;28;20087;-69
2022/09/18 10:47:19;;;;;;;6.50;2.50;;;;;;;17.62;42.64;98929.75;5028650;28;20049;-70
2022/09/18 10:49:53;;;;;;;2.63;1.60;;;;;;;17.07;41.82;98925.78;5034517;28;20029;-70
2022/09/18 10:52:34;;;;;;;6.30;1.95;;;;;;;17.26;42.91;98934.00;5037876;28;20415;-70
2022/09/18 10:55:06;;;;;;;3.05;1.70;;;;;;;17.49;43.53;98935.72;5034681;28;20022;-70
2022/09/18 10:57:48;;;;;;;2.08;1.30;;;;;;;17.59;42.33;98925.69;5031109;28;20025;-70
2022/09/18 11:00:19;;;;;;;2.42;1.45;;;;;;;17.82;42.58;98936.69;5034806;28;20048;-70
2022/09/18 11:03:03;;;;;;;3.15;1.90;;;;;;;17.81;42.57;98920.13;5033817;28;20040;-70
2022/09/18 11:05:32;;;;;;;1.20;1.10;;;;;;;17.96;41.67;98924.63;5038060;28;20032;-70
2022/09/18 11:08:00;;;;;;;3.78;1.58;;;;;;;18.13;41.97;98919.44;5043182;28;20377;-70
2022/09/18 11:10:35;;;;;;;2.92;1.30;;;;;;;18.15;42.21;98925.50;5035137;28;20558;-70
2022/09/18 11:13:02;;;;;;;3.95;2.13;;;;;;;18.26;41.29;98913.41;5050991;28;20051;-70
2022/09/18 11:15:31;;;;;;;4.15;3.42;;;;;;;18.18;41.11;98932.41;5036544;28;20111;-70
2022/09/18 11:18:00;;;;;;;3.05;1.30;;;;;;;18.01;41.82;98934.75;5031029;28;20472;-70
2022/09/18 11:20:42;;;;;;;1.73;1.52;;;;;;;17.81;41.88;98925.81;5033327;28;20032;-70
2022/09/18 11:23:29;;;;;;;2.95;1.60;;;;;;;18.19;40.94;98946.16;5038389;28;20024;-70
2022/09/18 11:26:18;;;;;;;4.25;1.55;;;;;;;17.87;40.62;98924.19;5043044;28;20029;-70
2022/09/18 11:29:15;;;;;;;1.60;1.40;;;;;;;17.85;41.51;98932.28;5042723;28;20418;-70
2022/09/18 11:31:55;;;;;;;2.40;1.50;;;;;;;17.90;40.41;98917.72;5032434;28;20053;-70
2022/09/18 11:34:28;;;;;;;2.90;1.55;;;;;;;18.38;40.96;98928.00;5048196;28;20115;-70
2022/09/18 11:37:15;;;;;;;4.25;1.67;;;;;;;18.50;40.55;98932.47;5042588;28;20515;-70
2022/09/18 11:39:44;;;;;;;1.65;1.55;;;;;;;18.41;40.31;98922.75;5030762;28;20020;-70
2022/09/18 11:42:13;;;;;;;1.83;1.42;;;;;;;18.57;40.52;98933.69;5047836;28;20029;-70
2022/09/18 11:44:39;;;;;;;3.13;1.38;;;;;;;18.72;41.19;98932.50;5048774;28;20526;-70
2022/09/18 11:47:26;;;;;;;2.22;1.25;;;;;;;18.80;41.35;98936.13;5050687;28;20032;-70